Time;durP1;ratioP1;P1;durP2;ratioP2;P2;SDS_P1;SDS_P2;PMS_P1;PMS_P2;Temp;Humidity;BMP_temperature;BMP_pressure;BME280_temperature;BME280_humidity;BME280_pressure;Samples;Min_cycle;Max_cycle;Signal;HPM_P1;HPM_P2
2022/12/07 00:02:22;;;;;;;34.47;18.40;;;;;;;;;;5058872;28;20252;-81
2022/12/07 00:04:51;;;;;;;32.97;17.07;;;;;;;;;;5052588;28;20201;-81
2022/12/07 00:07:18;;;;;;;29.40;15.77;;;;;;;;;;5051099;28;20312;-81
2022/12/07 00:09:45;;;;;;;30.17;16.37;;;;;;;;;;5051710;28;20631;-81
2022/12/07 00:12:13;;;;;;;31.33;17.13;;;;;;;;;;5051319;28;20244;-81
2022/12/07 00:14:40;;;;;;;36.13;18.17;;;;;;;;;;5051794;28;20222;-81
2022/12/07 00:17:07;;;;;;;33.27;17.07;;;;;;;;;;5051089;28;20267;-81
2022/12/07 00:19:36;;;;;;;34.13;17.50;;;;;;;;;;5051329;28;20230;-81
2022/12/07 00:22:03;;;;;;;34.17;17.43;;;;;;;;;;5051156;28;20240;-81
2022/12/07 00:24:31;;;;;;;32.00;16.43;;;;;;;;;;5050124;28;20202;-81
2022/12/07 00:26:58;;;;;;;33.30;17.50;;;;;;;;;;5052068;28;20757;-80
2022/12/07 00:29:25;;;;;;;35.97;18.63;;;;;;;;;;5050689;28;20293;-81
2022/12/07 00:31:52;;;;;;;40.30;19.67;;;;;;;;;;5051390;28;20621;-81
2022/12/07 00:34:21;;;;;;;36.33;18.53;;;;;;;;;;5051783;28;20252;-80
2022/12/07 00:36:50;;;;;;;35.57;18.17;;;;;;;;;;5050026;28;20213;-82
2022/12/07 00:39:17;;;;;;;31.27;15.80;;;;;;;;;;5051551;28;20300;-81
2022/12/07 00:41:45;;;;;;;30.37;16.80;;;;;;;;;;5050796;28;20712;-81
2022/12/07 00:44:12;;;;;;;30.90;15.97;;;;;;;;;;5051447;28;20231;-81
2022/12/07 00:46:39;;;;;;;29.03;15.80;;;;;;;;;;5050884;28;20201;-80
2022/12/07 00:49:06;;;;;;;31.67;16.83;;;;;;;;;;5051577;28;20643;-80
2022/12/07 00:51:34;;;;;;;32.33;16.07;;;;;;;;;;5051272;28;20232;-80
2022/12/07 00:54:02;;;;;;;32.10;16.97;;;;;;;;;;5050320;28;20251;-81
2022/12/07 00:56:30;;;;;;;30.53;16.03;;;;;;;;;;5051950;28;20225;-80
2022/12/07 00:58:58;;;;;;;32.67;16.77;;;;;;;;;;5049532;28;20733;-81
2022/12/07 01:01:26;;;;;;;35.33;17.17;;;;;;;;;;5050805;28;20204;-81
2022/12/07 01:03:54;;;;;;;34.50;16.83;;;;;;;;;;5050763;28;20200;-80
2022/12/07 01:06:22;;;;;;;28.07;15.70;;;;;;;;;;5049742;28;20742;-80
2022/12/07 01:08:50;;;;;;;31.70;16.53;;;;;;;;;;5050674;28;20250;-81
2022/12/07 01:11:19;;;;;;;29.80;15.83;;;;;;;;;;5050498;28;20208;-81
2022/12/07 01:13:47;;;;;;;29.30;15.53;;;;;;;;;;5051652;28;20257;-80
2022/12/07 01:16:15;;;;;;;28.50;15.07;;;;;;;;;;5050636;28;20223;-81
2022/12/07 01:18:43;;;;;;;31.00;14.90;;;;;;;;;;5050171;28;20245;-81
2022/12/07 01:21:12;;;;;;;27.90;15.90;;;;;;;;;;5050106;28;20721;-81
2022/12/07 01:23:40;;;;;;;28.87;14.73;;;;;;;;;;5051361;28;20247;-81
2022/12/07 01:26:09;;;;;;;32.67;16.00;;;;;;;;;;5051138;28;20267;-80
2022/12/07 01:28:37;;;;;;;30.23;15.90;;;;;;;;;;5050727;28;20192;-81
2022/12/07 01:31:06;;;;;;;32.57;15.63;;;;;;;;;;5050742;28;20262;-81
2022/12/07 01:33:34;;;;;;;32.10;16.40;;;;;;;;;;5049714;28;20249;-81
2022/12/07 01:36:04;;;;;;;31.77;16.27;;;;;;;;;;5050561;28;20251;-81
2022/12/07 01:38:32;;;;;;;32.50;16.03;;;;;;;;;;5032600;28;20228;-81
2022/12/07 01:41:00;;;;;;;31.67;16.23;;;;;;;;;;5050403;28;21054;-81
2022/12/07 01:43:29;;;;;;;30.00;15.93;;;;;;;;;;5049901;28;20200;-82
2022/12/07 01:45:57;;;;;;;30.90;15.67;;;;;;;;;;5043255;28;20204;-81
2022/12/07 01:48:28;;;;;;;30.23;15.37;;;;;;;;;;5052692;28;20718;-81
2022/12/07 01:50:57;;;;;;;27.70;15.40;;;;;;;;;;5054508;28;20204;-81
2022/12/07 01:53:29;;;;;;;31.53;15.80;;;;;;;;;;5054094;28;20261;-81
2022/12/07 01:55:57;;;;;;;32.93;15.67;;;;;;;;;;5053938;28;20224;-82
2022/12/07 01:58:24;;;;;;;32.27;16.20;;;;;;;;;;5053794;28;20653;-82
2022/12/07 02:00:54;;;;;;;30.50;16.07;;;;;;;;;;5053728;28;20739;-81
2022/12/07 02:03:24;;;;;;;30.73;15.77;;;;;;;;;;5054646;28;20254;-81
2022/12/07 02:06:01;;;;;;;30.40;15.90;;;;;;;;;;5054589;28;20197;-81
2022/12/07 02:08:29;;;;;;;33.47;16.77;;;;;;;;;;5053989;28;20265;-81
2022/12/07 02:11:01;;;;;;;33.10;16.67;;;;;;;;;;5054288;28;20253;-81
2022/12/07 02:13:29;;;;;;;34.43;17.30;;;;;;;;;;5054427;28;20232;-81
2022/12/07 02:16:02;;;;;;;35.43;17.03;;;;;;;;;;5053839;28;20257;-80
2022/12/07 02:18:37;;;;;;;38.13;17.80;;;;;;;;;;5053305;28;20672;-81
2022/12/07 02:21:08;;;;;;;32.93;16.93;;;;;;;;;;5054427;28;20199;-80
2022/12/07 02:23:53;;;;;;;32.37;16.50;;;;;;;;;;5054680;28;20200;-81
2022/12/07 02:26:47;;;;;;;37.63;17.50;;;;;;;;;;5046175;28;20856;-80
2022/12/07 02:29:18;;;;;;;33.30;17.17;;;;;;;;;;5054256;28;20257;-80
2022/12/07 02:31:47;;;;;;;33.50;17.23;;;;;;;;;;5053747;28;20250;-81
2022/12/07 02:34:20;;;;;;;35.17;17.00;;;;;;;;;;5053700;28;20200;-81
2022/12/07 02:36:52;;;;;;;36.87;16.90;;;;;;;;;;5053718;28;20257;-81
2022/12/07 02:39:22;;;;;;;36.47;17.00;;;;;;;;;;5052970;28;20261;-82
2022/12/07 02:41:53;;;;;;;32.10;15.73;;;;;;;;;;5055029;28;20553;-81
2022/12/07 02:44:23;;;;;;;35.03;17.27;;;;;;;;;;5054013;28;20541;-81
2022/12/07 02:46:54;;;;;;;32.13;16.87;;;;;;;;;;5053775;28;20200;-81
2022/12/07 02:49:23;;;;;;;34.40;16.20;;;;;;;;;;5053656;28;20237;-81
2022/12/07 02:51:50;;;;;;;35.57;16.83;;;;;;;;;;5053726;28;20199;-81
2022/12/07 02:54:19;;;;;;;38.30;17.93;;;;;;;;;;5052812;28;20250;-81
2022/12/07 02:56:49;;;;;;;36.10;17.20;;;;;;;;;;5045776;28;20231;-81
2022/12/07 02:59:19;;;;;;;36.30;17.57;;;;;;;;;;5051419;28;20204;-81
2022/12/07 03:01:54;;;;;;;34.27;17.23;;;;;;;;;;5052720;28;20199;-81
2022/12/07 03:04:32;;;;;;;36.57;16.90;;;;;;;;;;5053106;28;20209;-81
2022/12/07 03:07:02;;;;;;;35.47;17.10;;;;;;;;;;5051320;28;20670;-81
2022/12/07 03:09:37;;;;;;;32.70;16.10;;;;;;;;;;5053725;28;20199;-81
2022/12/07 03:12:10;;;;;;;33.60;16.40;;;;;;;;;;5053330;28;20205;-80
2022/12/07 03:14:41;;;;;;;33.97;17.07;;;;;;;;;;5053275;28;20304;-81
2022/12/07 03:17:13;;;;;;;33.37;16.30;;;;;;;;;;5048816;28;20199;-81
2022/12/07 03:19:41;;;;;;;35.30;16.23;;;;;;;;;;5052399;28;20203;-81
2022/12/07 03:22:13;;;;;;;35.77;16.53;;;;;;;;;;5052799;28;20231;-81
2022/12/07 03:24:43;;;;;;;34.63;16.63;;;;;;;;;;5052549;28;20285;-80
2022/12/07 03:27:13;;;;;;;34.90;16.33;;;;;;;;;;5052295;28;20218;-81
2022/12/07 03:29:42;;;;;;;41.90;17.47;;;;;;;;;;5053251;28;20305;-81
2022/12/07 03:32:13;;;;;;;36.97;16.53;;;;;;;;;;5052170;28;20235;-81
2022/12/07 03:34:42;;;;;;;37.10;17.10;;;;;;;;;;5053441;28;20207;-81
2022/12/07 03:37:12;;;;;;;33.23;17.20;;;;;;;;;;5051379;28;20251;-81
2022/12/07 03:39:41;;;;;;;47.50;16.47;;;;;;;;;;5052380;28;20984;-81
2022/12/07 03:42:10;;;;;;;42.10;15.90;;;;;;;;;;5052014;28;20204;-81
2022/12/07 03:44:38;;;;;;;43.00;14.40;;;;;;;;;;5052246;28;20248;-81
2022/12/07 03:47:06;;;;;;;57.50;15.87;;;;;;;;;;5051711;28;20200;-81
2022/12/07 03:49:39;;;;;;;35.33;14.60;;;;;;;;;;5051835;28;20245;-81
2022/12/07 03:52:10;;;;;;;48.03;15.13;;;;;;;;;;5052274;28;20235;-80
2022/12/07 03:54:41;;;;;;;46.47;14.97;;;;;;;;;;5052663;28;20238;-81
2022/12/07 03:57:08;;;;;;;48.77;14.43;;;;;;;;;;5052057;28;20232;-81
2022/12/07 03:59:36;;;;;;;43.60;15.03;;;;;;;;;;5048164;28;20240;-82
2022/12/07 04:02:05;;;;;;;44.87;14.57;;;;;;;;;;5052232;28;20685;-81
2022/12/07 04:04:32;;;;;;;50.83;15.33;;;;;;;;;;5051471;28;20261;-80
2022/12/07 04:07:01;;;;;;;55.47;15.30;;;;;;;;;;5051419;28;20195;-81
2022/12/07 04:09:29;;;;;;;49.07;14.37;;;;;;;;;;5051736;28;20214;-81
2022/12/07 04:11:56;;;;;;;48.50;14.70;;;;;;;;;;5051688;28;20207;-81
2022/12/07 04:14:23;;;;;;;44.00;14.80;;;;;;;;;;5051361;28;20242;-80
2022/12/07 04:16:51;;;;;;;43.13;14.90;;;;;;;;;;5051328;28;20259;-80
2022/12/07 04:19:20;;;;;;;43.93;14.07;;;;;;;;;;5052038;28;20192;-80
2022/12/07 04:21:47;;;;;;;37.83;13.90;;;;;;;;;;5051161;28;20259;-80
2022/12/07 04:24:16;;;;;;;34.40;12.93;;;;;;;;;;5051944;28;20222;-81
2022/12/07 04:26:44;;;;;;;41.93;13.10;;;;;;;;;;5048806;28;20200;-80
2022/12/07 04:29:12;;;;;;;29.77;11.83;;;;;;;;;;5050939;28;20243;-80
2022/12/07 04:31:39;;;;;;;34.73;12.40;;;;;;;;;;5051218;28;21041;-80
2022/12/07 04:34:09;;;;;;;29.97;12.23;;;;;;;;;;5051314;28;20231;-80
2022/12/07 04:36:39;;;;;;;28.03;12.17;;;;;;;;;;5051798;28;20659;-80
2022/12/07 04:39:07;;;;;;;29.07;11.60;;;;;;;;;;5050638;28;20242;-80
2022/12/07 04:41:36;;;;;;;30.13;11.90;;;;;;;;;;5051215;28;20200;-80
2022/12/07 04:44:07;;;;;;;30.20;12.10;;;;;;;;;;5050556;28;20230;-80
2022/12/07 04:46:34;;;;;;;22.63;11.83;;;;;;;;;;5051885;28;20204;-80
2022/12/07 04:49:01;;;;;;;26.03;11.17;;;;;;;;;;5050327;28;20660;-80
2022/12/07 04:51:30;;;;;;;26.40;11.07;;;;;;;;;;5051638;28;20196;-80
2022/12/07 04:53:57;;;;;;;21.17;10.97;;;;;;;;;;5051246;28;20205;-80
2022/12/07 04:56:25;;;;;;;22.63;10.80;;;;;;;;;;5050584;28;20295;-80
2022/12/07 04:58:54;;;;;;;24.57;11.67;;;;;;;;;;5051190;28;20706;-80
2022/12/07 05:01:22;;;;;;;24.77;11.50;;;;;;;;;;5051025;28;20288;-81
2022/12/07 05:03:50;;;;;;;26.73;11.77;;;;;;;;;;5051038;28;20379;-80
2022/12/07 05:06:17;;;;;;;27.17;10.87;;;;;;;;;;5050828;28;20199;-80
2022/12/07 05:08:44;;;;;;;25.13;10.87;;;;;;;;;;5051571;28;20253;-80
2022/12/07 05:11:37;;;;;;;29.83;11.50;;;;;;;;;;5050769;28;20206;-80
2022/12/07 05:14:01;;;;;;;28.97;11.57;;;;;;;;;;5051221;28;20206;-80
2022/12/07 05:16:29;;;;;;;24.07;10.27;;;;;;;;;;5050524;28;20640;-80
2022/12/07 05:18:56;;;;;;;20.70;9.60;;;;;;;;;;5051303;28;20226;-80
2022/12/07 05:21:23;;;;;;;26.47;11.27;;;;;;;;;;5051346;28;20284;-80
2022/12/07 05:23:50;;;;;;;32.53;10.83;;;;;;;;;;5054007;28;20192;-80
2022/12/07 05:26:18;;;;;;;24.30;9.80;;;;;;;;;;5054685;28;20253;-80
2022/12/07 05:28:45;;;;;;;26.23;10.87;;;;;;;;;;5054306;28;20239;-80
2022/12/07 05:31:14;;;;;;;26.97;10.17;;;;;;;;;;5055204;28;20242;-80
2022/12/07 05:33:41;;;;;;;20.53;10.87;;;;;;;;;;5053529;28;20223;-80
2022/12/07 05:36:08;;;;;;;27.97;11.40;;;;;;;;;;5054729;28;20240;-81
2022/12/07 05:38:36;;;;;;;20.40;10.60;;;;;;;;;;5054969;28;20723;-80
2022/12/07 05:41:04;;;;;;;23.00;10.93;;;;;;;;;;5054366;28;20195;-80
2022/12/07 05:43:31;;;;;;;22.80;11.73;;;;;;;;;;5054858;28;20200;-80
2022/12/07 05:45:59;;;;;;;22.40;10.93;;;;;;;;;;5054612;28;20204;-80
2022/12/07 05:48:28;;;;;;;27.30;11.13;;;;;;;;;;5054964;28;20211;-80
2022/12/07 05:50:55;;;;;;;25.40;11.00;;;;;;;;;;5053833;28;20249;-80
2022/12/07 05:53:22;;;;;;;25.90;10.70;;;;;;;;;;5054303;28;20242;-80
2022/12/07 05:55:49;;;;;;;28.43;11.60;;;;;;;;;;5054013;28;20258;-80
2022/12/07 06:01:01;;;;;;;21.53;10.73;;;;;;;;;;5050754;28;20267;-80
2022/12/07 06:03:30;;;;;;;25.73;11.27;;;;;;;;;;5054370;28;20187;-79
2022/12/07 06:05:57;;;;;;;26.37;11.17;;;;;;;;;;5053599;28;20228;-81
2022/12/07 06:08:24;;;;;;;22.17;11.10;;;;;;;;;;5054160;28;20332;-80
2022/12/07 06:12:33;;;;;;;25.30;10.87;;;;;;;;;;5053349;28;20231;-80
2022/12/07 06:13:38;;;;;;;23.27;11.43;;;;;;;;;;5053245;28;20215;-80
2022/12/07 06:16:08;;;;;;;26.87;11.57;;;;;;;;;;5054997;28;20310;-80
2022/12/07 06:18:36;;;;;;;25.03;11.03;;;;;;;;;;5053571;28;20206;-80
2022/12/07 06:21:06;;;;;;;23.53;11.53;;;;;;;;;;5054278;28;20675;-79
2022/12/07 06:23:33;;;;;;;25.27;11.50;;;;;;;;;;5046253;28;20214;-82
2022/12/07 06:26:00;;;;;;;22.40;10.50;;;;;;;;;;5048797;28;20226;-81
2022/12/07 06:28:27;;;;;;;21.33;10.50;;;;;;;;;;5053998;28;20234;-81
2022/12/07 06:30:59;;;;;;;28.07;11.50;;;;;;;;;;5052105;28;20257;-81
2022/12/07 06:33:26;;;;;;;27.27;15.53;;;;;;;;;;5052112;28;20211;-81
2022/12/07 06:35:55;;;;;;;25.27;14.10;;;;;;;;;;5048504;28;20264;-80
2022/12/07 06:38:22;;;;;;;26.03;12.60;;;;;;;;;;5046634;28;20779;-81
2022/12/07 06:40:49;;;;;;;114.93;49.63;;;;;;;;;;5050206;28;20274;-82
2022/12/07 06:43:17;;;;;;;234.47;136.73;;;;;;;;;;5062869;28;20207;-78
2022/12/07 06:45:44;;;;;;;33.37;21.50;;;;;;;;;;5054193;28;20249;-79
2022/12/07 06:48:11;;;;;;;39.77;28.23;;;;;;;;;;5053621;28;20605;-80
2022/12/07 06:50:38;;;;;;;49.77;30.90;;;;;;;;;;5053878;28;20204;-79
2022/12/07 06:53:10;;;;;;;129.60;74.80;;;;;;;;;;5051546;28;20204;-80
2022/12/07 06:55:37;;;;;;;87.97;49.90;;;;;;;;;;5052101;28;20263;-79
2022/12/07 06:58:04;;;;;;;107.07;60.37;;;;;;;;;;5051986;28;20196;-78
2022/12/07 07:00:31;;;;;;;43.27;27.47;;;;;;;;;;5048962;28;20196;-79
2022/12/07 07:02:59;;;;;;;32.97;14.77;;;;;;;;;;5052045;28;20209;-78
2022/12/07 07:05:26;;;;;;;32.77;16.40;;;;;;;;;;5051960;28;20300;-78
2022/12/07 07:07:54;;;;;;;40.87;24.83;;;;;;;;;;5054947;28;20201;-79
2022/12/07 07:10:22;;;;;;;22.03;11.37;;;;;;;;;;5042233;28;20269;-79
2022/12/07 07:12:49;;;;;;;27.40;14.60;;;;;;;;;;5052084;28;20238;-80
2022/12/07 07:15:17;;;;;;;22.50;11.63;;;;;;;;;;5052340;28;20253;-80
2022/12/07 07:17:44;;;;;;;24.13;11.43;;;;;;;;;;5052644;28;20247;-80
2022/12/07 07:20:12;;;;;;;24.87;14.40;;;;;;;;;;5050916;28;20235;-80
2022/12/07 07:22:39;;;;;;;30.27;15.90;;;;;;;;;;5051880;28;20211;-80
2022/12/07 07:25:06;;;;;;;25.43;12.20;;;;;;;;;;5052674;28;20243;-79
2022/12/07 07:27:35;;;;;;;31.33;16.23;;;;;;;;;;5051521;28;20246;-80
2022/12/07 07:30:02;;;;;;;26.87;14.87;;;;;;;;;;5052208;28;20261;-80
2022/12/07 07:32:29;;;;;;;24.43;13.00;;;;;;;;;;5052430;28;20231;-79
2022/12/07 07:34:57;;;;;;;33.83;18.17;;;;;;;;;;5052365;28;20706;-80
2022/12/07 07:37:24;;;;;;;63.80;29.17;;;;;;;;;;5052748;28;20246;-79
2022/12/07 07:39:52;;;;;;;153.83;75.40;;;;;;;;;;5052988;28;20227;-80
2022/12/07 07:42:19;;;;;;;105.17;50.40;;;;;;;;;;5057871;28;20235;-80
2022/12/07 07:44:48;;;;;;;46.07;27.83;;;;;;;;;;5052048;28;20231;-79
2022/12/07 07:47:15;;;;;;;44.47;22.53;;;;;;;;;;5052173;28;20262;-80
2022/12/07 07:49:42;;;;;;;44.97;24.67;;;;;;;;;;5052745;28;20254;-79
2022/12/07 07:52:09;;;;;;;107.87;56.07;;;;;;;;;;5052309;28;20745;-79
2022/12/07 07:54:37;;;;;;;35.17;15.60;;;;;;;;;;5052329;28;20253;-80
2022/12/07 07:57:04;;;;;;;27.67;12.73;;;;;;;;;;5050895;28;20259;-80
2022/12/07 07:59:31;;;;;;;33.17;12.77;;;;;;;;;;5053018;28;20246;-79
2022/12/07 08:02:00;;;;;;;56.07;13.27;;;;;;;;;;5052255;28;20257;-79
2022/12/07 08:04:27;;;;;;;31.80;12.37;;;;;;;;;;5052431;28;20246;-80
2022/12/07 08:06:54;;;;;;;49.37;17.97;;;;;;;;;;5050289;28;20285;-79
2022/12/07 08:09:21;;;;;;;29.97;14.77;;;;;;;;;;5051528;28;20672;-79
2022/12/07 08:11:48;;;;;;;45.53;12.60;;;;;;;;;;5052477;28;20227;-79
2022/12/07 08:14:16;;;;;;;53.43;29.73;;;;;;;;;;5053299;28;20243;-79
2022/12/07 08:16:43;;;;;;;51.00;26.10;;;;;;;;;;5055827;28;20258;-79
2022/12/07 08:19:12;;;;;;;40.13;19.77;;;;;;;;;;5051773;28;20204;-79
2022/12/07 08:21:39;;;;;;;62.03;33.03;;;;;;;;;;5052445;28;20277;-80
2022/12/07 08:24:07;;;;;;;91.10;30.13;;;;;;;;;;5052756;28;20279;-79
2022/12/07 08:26:34;;;;;;;96.13;32.60;;;;;;;;;;5054853;28;20580;-79
2022/12/07 08:29:01;;;;;;;33.77;13.93;;;;;;;;;;5044478;28;20258;-79
2022/12/07 08:31:29;;;;;;;72.07;13.07;;;;;;;;;;5051485;28;20200;-79
2022/12/07 08:33:57;;;;;;;23.00;10.93;;;;;;;;;;5051422;28;20318;-80
2022/12/07 08:36:25;;;;;;;455.03;177.57;;;;;;;;;;5051032;28;20257;-80
2022/12/07 08:38:53;;;;;;;138.47;53.10;;;;;;;;;;5049166;28;20224;-79
2022/12/07 08:41:20;;;;;;;339.53;121.40;;;;;;;;;;5051252;28;20620;-78
2022/12/07 08:43:47;;;;;;;128.67;62.10;;;;;;;;;;5052039;28;20241;-79
2022/12/07 08:46:18;;;;;;;39.13;17.23;;;;;;;;;;5051319;28;20232;-79
2022/12/07 08:48:48;;;;;;;50.70;19.97;;;;;;;;;;5051147;28;20581;-80
2022/12/07 08:51:15;;;;;;;80.83;31.50;;;;;;;;;;5052084;28;20232;-79
2022/12/07 08:53:44;;;;;;;108.97;67.37;;;;;;;;;;5051180;28;20255;-80
2022/12/07 08:56:12;;;;;;;41.77;12.37;;;;;;;;;;5051524;28;20220;-79
2022/12/07 08:58:40;;;;;;;37.53;17.17;;;;;;;;;;5054118;28;20237;-79
2022/12/07 09:01:07;;;;;;;47.40;26.13;;;;;;;;;;5056340;28;20253;-80
2022/12/07 09:03:34;;;;;;;51.73;18.80;;;;;;;;;;5056236;28;20231;-79
2022/12/07 09:06:02;;;;;;;94.97;11.13;;;;;;;;;;5050439;28;20610;-79
2022/12/07 09:08:33;;;;;;;123.90;11.90;;;;;;;;;;5055517;28;20195;-79
2022/12/07 09:11:01;;;;;;;36.80;10.37;;;;;;;;;;5051973;28;20641;-79
2022/12/07 09:13:28;;;;;;;50.53;10.13;;;;;;;;;;5055540;28;20208;-79
2022/12/07 09:15:56;;;;;;;24.07;11.47;;;;;;;;;;5055490;28;20209;-80
2022/12/07 09:18:25;;;;;;;119.67;13.40;;;;;;;;;;5055457;28;20199;-79
2022/12/07 09:20:52;;;;;;;93.27;14.47;;;;;;;;;;5058082;28;20303;-79
2022/12/07 09:23:19;;;;;;;89.33;20.53;;;;;;;;;;5063820;28;20232;-79
2022/12/07 09:25:50;;;;;;;104.17;20.27;;;;;;;;;;5069620;28;20580;-80
2022/12/07 09:28:21;;;;;;;94.63;46.43;;;;;;;;;;5056011;28;20225;-79
2022/12/07 09:30:49;;;;;;;128.50;22.53;;;;;;;;;;5055832;28;20267;-80
2022/12/07 09:33:16;;;;;;;69.20;21.83;;;;;;;;;;5055362;28;20240;-80
2022/12/07 09:35:49;;;;;;;132.47;28.00;;;;;;;;;;5054591;28;20234;-80
2022/12/07 09:38:16;;;;;;;85.63;19.83;;;;;;;;;;5054953;28;20237;-79
2022/12/07 09:40:44;;;;;;;97.50;31.40;;;;;;;;;;5055045;28;20226;-79
2022/12/07 09:43:15;;;;;;;78.27;22.07;;;;;;;;;;5054989;28;20260;-80
2022/12/07 09:45:43;;;;;;;59.07;25.20;;;;;;;;;;5053330;28;20207;-79
2022/12/07 09:48:16;;;;;;;153.73;47.50;;;;;;;;;;5054688;28;20744;-80
2022/12/07 09:50:43;;;;;;;59.73;23.73;;;;;;;;;;5051039;28;20286;-79
2022/12/07 09:53:15;;;;;;;102.27;49.57;;;;;;;;;;5054161;28;20202;-79
2022/12/07 09:55:42;;;;;;;70.50;39.97;;;;;;;;;;5053198;28;20684;-79
2022/12/07 09:58:14;;;;;;;57.30;18.97;;;;;;;;;;5054844;28;20262;-79
2022/12/07 10:00:42;;;;;;;92.40;32.53;;;;;;;;;;5054371;28;20199;-79
2022/12/07 10:03:12;;;;;;;230.20;22.20;;;;;;;;;;5052091;28;20248;-79
2022/12/07 10:05:41;;;;;;;73.80;14.50;;;;;;;;;;5053600;28;20211;-80
2022/12/07 10:08:09;;;;;;;31.87;14.03;;;;;;;;;;5054364;28;20215;-79
2022/12/07 10:10:39;;;;;;;50.60;13.67;;;;;;;;;;5049477;28;20206;-79
2022/12/07 10:13:07;;;;;;;89.17;14.27;;;;;;;;;;5054535;28;20229;-80
2022/12/07 10:15:42;;;;;;;29.57;13.10;;;;;;;;;;5054044;28;20235;-81
2022/12/07 10:18:20;;;;;;;31.70;12.83;;;;;;;;;;5049583;28;20230;-80
2022/12/07 10:20:47;;;;;;;29.10;12.87;;;;;;;;;;5053648;28;20833;-80
2022/12/07 10:23:16;;;;;;;321.13;143.83;;;;;;;;;;5054338;28;20260;-84
2022/12/07 10:25:44;;;;;;;33.77;19.13;;;;;;;;;;5054218;28;20294;-84
2022/12/07 10:28:16;;;;;;;60.73;44.53;;;;;;;;;;5054114;28;20202;-84
2022/12/07 10:30:51;;;;;;;39.23;16.20;;;;;;;;;;5053933;28;20222;-84
2022/12/07 10:33:37;;;;;;;27.43;19.10;;;;;;;;;;5053739;28;20195;-84
2022/12/07 10:36:18;;;;;;;21.07;11.93;;;;;;;;;;5053147;28;20670;-85
2022/12/07 10:38:46;;;;;;;18.07;11.53;;;;;;;;;;5053687;28;20640;-84
2022/12/07 10:41:14;;;;;;;23.87;12.00;;;;;;;;;;5050382;28;20203;-85
2022/12/07 10:43:48;;;;;;;19.47;11.47;;;;;;;;;;5054751;28;20211;-84
2022/12/07 10:46:24;;;;;;;19.40;12.87;;;;;;;;;;5052845;28;20633;-85
2022/12/07 10:48:58;;;;;;;19.37;12.57;;;;;;;;;;5054044;28;20253;-85
2022/12/07 10:51:27;;;;;;;17.07;10.53;;;;;;;;;;5053637;28;20196;-84
2022/12/07 10:53:59;;;;;;;16.00;10.40;;;;;;;;;;5048901;28;20203;-84
2022/12/07 10:56:33;;;;;;;15.63;9.93;;;;;;;;;;5053170;28;20204;-84
2022/12/07 10:59:06;;;;;;;16.87;10.57;;;;;;;;;;5052564;28;20221;-84
2022/12/07 11:01:35;;;;;;;18.13;13.00;;;;;;;;;;5053519;28;20207;-85
2022/12/07 11:04:17;;;;;;;25.80;18.77;;;;;;;;;;5053650;28;20260;-85
2022/12/07 11:06:48;;;;;;;21.50;13.27;;;;;;;;;;5053356;28;20195;-85
2022/12/07 11:09:30;;;;;;;17.13;11.30;;;;;;;;;;5054966;28;20254;-85
2022/12/07 11:12:01;;;;;;;15.53;10.93;;;;;;;;;;5052603;28;20196;-85
2022/12/07 11:14:36;;;;;;;15.93;11.47;;;;;;;;;;5055732;28;20234;-85
2022/12/07 11:17:08;;;;;;;15.70;10.43;;;;;;;;;;5048520;28;20251;-84
2022/12/07 11:19:52;;;;;;;14.33;10.60;;;;;;;;;;5052988;28;20202;-85
2022/12/07 11:22:24;;;;;;;15.83;12.27;;;;;;;;;;5053160;28;20964;-84
2022/12/07 11:24:55;;;;;;;14.97;10.33;;;;;;;;;;5053400;28;20227;-85
2022/12/07 11:27:31;;;;;;;16.73;11.57;;;;;;;;;;5046622;28;20623;-85
2022/12/07 11:30:05;;;;;;;14.87;10.20;;;;;;;;;;5035979;28;20277;-84
2022/12/07 11:32:46;;;;;;;17.93;13.23;;;;;;;;;;5052503;28;20230;-84
2022/12/07 11:35:19;;;;;;;19.70;13.70;;;;;;;;;;5059885;28;20195;-85
2022/12/07 11:37:48;;;;;;;20.40;14.33;;;;;;;;;;5051160;28;20235;-86
2022/12/07 11:40:19;;;;;;;22.17;14.50;;;;;;;;;;5053468;28;20228;-85
2022/12/07 11:42:48;;;;;;;18.40;13.83;;;;;;;;;;5051780;28;20216;-85
2022/12/07 11:45:17;;;;;;;18.23;14.10;;;;;;;;;;5051798;28;20222;-85
2022/12/07 11:47:49;;;;;;;19.50;14.07;;;;;;;;;;5049008;28;20199;-85
2022/12/07 11:50:26;;;;;;;17.60;13.77;;;;;;;;;;5066048;28;20199;-86
2022/12/07 11:52:56;;;;;;;18.23;13.03;;;;;;;;;;5062148;28;20221;-85
2022/12/07 11:55:27;;;;;;;17.40;12.47;;;;;;;;;;5050513;28;20201;-85
2022/12/07 11:58:00;;;;;;;16.87;12.63;;;;;;;;;;5054294;28;20300;-82
2022/12/07 12:00:27;;;;;;;17.37;12.90;;;;;;;;;;5043751;28;20236;-83
2022/12/07 12:03:00;;;;;;;16.77;12.57;;;;;;;;;;5050659;28;20207;-84
2022/12/07 12:05:29;;;;;;;17.17;12.87;;;;;;;;;;5044910;28;20208;-84
2022/12/07 12:08:03;;;;;;;16.67;11.83;;;;;;;;;;5041678;28;20698;-84
2022/12/07 12:10:37;;;;;;;16.53;11.90;;;;;;;;;;5034779;28;20211;-81
2022/12/07 12:13:12;;;;;;;18.47;12.90;;;;;;;;;;5051927;28;20228;-83
2022/12/07 12:15:46;;;;;;;17.20;12.47;;;;;;;;;;5035376;28;20598;-84
2022/12/07 12:18:28;;;;;;;16.33;11.93;;;;;;;;;;5051906;28;20649;-82
2022/12/07 12:20:59;;;;;;;20.20;13.30;;;;;;;;;;5049083;28;20308;-83
2022/12/07 12:23:31;;;;;;;19.40;13.70;;;;;;;;;;5032501;28;20216;-82
2022/12/07 12:25:59;;;;;;;17.17;12.87;;;;;;;;;;5045636;28;20840;-82
2022/12/07 12:28:30;;;;;;;18.90;12.67;;;;;;;;;;5051669;28;20234;-82
2022/12/07 12:31:08;;;;;;;21.53;14.57;;;;;;;;;;5052474;28;20675;-83
2022/12/07 12:33:36;;;;;;;17.70;12.77;;;;;;;;;;5037261;28;20257;-83
2022/12/07 12:36:22;;;;;;;19.33;14.43;;;;;;;;;;5045822;28;20656;-83
2022/12/07 12:38:53;;;;;;;19.17;14.07;;;;;;;;;;5045037;28;20588;-83
2022/12/07 12:44:59;;;;;;;19.37;13.93;;;;;;;;;;5022160;28;20668;-81
2022/12/07 12:47:43;;;;;;;21.90;14.90;;;;;;;;;;4956785;28;20199;-82
2022/12/07 12:50:14;;;;;;;18.07;13.53;;;;;;;;;;4969548;28;20206;-81
2022/12/07 12:52:53;;;;;;;19.83;13.83;;;;;;;;;;4971350;28;20237;-82
2022/12/07 12:55:31;;;;;;;20.33;14.97;;;;;;;;;;4967116;28;20234;-82
2022/12/07 12:58:16;;;;;;;21.53;14.80;;;;;;;;;;4964324;28;20300;-81
2022/12/07 13:00:43;;;;;;;19.17;13.80;;;;;;;;;;4969890;28;20199;-83
2022/12/07 13:03:23;;;;;;;17.33;13.90;;;;;;;;;;4970508;28;20273;-83
2022/12/07 13:05:50;;;;;;;18.33;14.17;;;;;;;;;;4974418;28;20210;-82
2022/12/07 13:08:20;;;;;;;17.63;12.90;;;;;;;;;;4972150;28;20249;-82
2022/12/07 13:10:48;;;;;;;16.67;12.80;;;;;;;;;;4974640;28;20238;-82
2022/12/07 13:13:32;;;;;;;20.37;15.13;;;;;;;;;;4970210;28;20251;-82
2022/12/07 13:16:15;;;;;;;18.17;11.97;;;;;;;;;;4968733;28;20678;-82
2022/12/07 13:18:43;;;;;;;18.07;13.33;;;;;;;;;;4962142;28;20257;-83
2022/12/07 13:21:25;;;;;;;16.30;11.97;;;;;;;;;;4990649;28;20207;-82
2022/12/07 13:23:59;;;;;;;17.57;12.30;;;;;;;;;;5045976;28;20270;-82
2022/12/07 13:26:36;;;;;;;17.83;12.50;;;;;;;;;;5045046;28;20194;-83
2022/12/07 13:29:07;;;;;;;16.20;12.90;;;;;;;;;;5050539;28;20292;-82
2022/12/07 13:31:35;;;;;;;17.37;13.20;;;;;;;;;;5051124;28;20212;-83
2022/12/07 13:34:03;;;;;;;16.60;12.50;;;;;;;;;;5051499;28;20208;-83
2022/12/07 13:36:35;;;;;;;20.37;12.83;;;;;;;;;;5051574;28;20196;-83
2022/12/07 13:39:12;;;;;;;16.10;12.77;;;;;;;;;;5051066;28;20278;-83
2022/12/07 13:41:43;;;;;;;17.30;12.13;;;;;;;;;;5051806;28;20203;-83
2022/12/07 13:44:11;;;;;;;15.43;11.40;;;;;;;;;;5054706;28;20203;-83
2022/12/07 13:46:45;;;;;;;13.57;10.70;;;;;;;;;;5054750;28;20265;-83
2022/12/07 13:49:19;;;;;;;14.10;11.20;;;;;;;;;;5054643;28;20192;-83
2022/12/07 13:51:47;;;;;;;13.87;10.77;;;;;;;;;;5047293;28;20230;-83
2022/12/07 13:54:16;;;;;;;15.57;11.07;;;;;;;;;;5054072;28;20676;-83
2022/12/07 13:56:43;;;;;;;14.17;11.13;;;;;;;;;;5053594;28;20219;-84
2022/12/07 13:59:14;;;;;;;14.00;11.03;;;;;;;;;;5053862;28;20345;-83
2022/12/07 14:01:43;;;;;;;14.30;11.10;;;;;;;;;;5052033;28;20258;-86
2022/12/07 14:04:34;;;;;;;15.83;11.17;;;;;;;;;;5053889;28;20294;-85
2022/12/07 14:07:02;;;;;;;13.50;10.27;;;;;;;;;;5038060;28;20200;-85
2022/12/07 14:09:31;;;;;;;17.47;11.90;;;;;;;;;;5054084;28;20624;-85
2022/12/07 14:11:59;;;;;;;16.57;11.70;;;;;;;;;;5052054;28;20204;-85
2022/12/07 14:14:28;;;;;;;15.47;12.00;;;;;;;;;;5054489;28;20199;-85
2022/12/07 14:16:59;;;;;;;16.33;11.77;;;;;;;;;;5053707;28;20281;-85
2022/12/07 14:19:43;;;;;;;17.47;11.97;;;;;;;;;;5053006;28;20223;-85
2022/12/07 14:22:20;;;;;;;16.53;12.63;;;;;;;;;;5037175;28;20212;-85
2022/12/07 14:24:49;;;;;;;17.77;12.07;;;;;;;;;;5049868;28;20199;-85
2022/12/07 14:27:19;;;;;;;14.87;10.67;;;;;;;;;;5036471;28;20200;-85
2022/12/07 14:29:46;;;;;;;13.97;11.27;;;;;;;;;;5053665;28;20587;-85
2022/12/07 14:32:20;;;;;;;14.90;11.43;;;;;;;;;;5053251;28;20286;-85
2022/12/07 14:34:57;;;;;;;15.73;11.00;;;;;;;;;;5053885;28;20296;-85
2022/12/07 14:37:25;;;;;;;15.47;11.07;;;;;;;;;;5052543;28;20238;-85
2022/12/07 14:39:54;;;;;;;17.43;10.60;;;;;;;;;;5052163;28;20767;-86